Time;durP1;ratioP1;P1;durP2;ratioP2;P2;SDS_P1;SDS_P2;PMS_P1;PMS_P2;Temp;Humidity;BMP_temperature;BMP_pressure;BME280_temperature;BME280_humidity;BME280_pressure;Samples;Min_cycle;Max_cycle;Signal;HPM_P1;HPM_P2
2022/11/21 00:00:47;;;;;;;10.77;6.30;;;7.10;99.90;;;;;;5049939;28;20178;-68
2022/11/21 00:03:13;;;;;;;9.33;6.17;;;7.10;99.90;;;;;;5051262;28;20537;-69
2022/11/21 00:05:42;;;;;;;7.70;7.00;;;7.10;99.90;;;;;;5050810;28;20171;-69
2022/11/21 00:08:09;;;;;;;7.00;6.57;;;7.10;99.90;;;;;;5051088;28;20574;-68
2022/11/21 00:10:36;;;;;;;7.70;7.23;;;7.10;99.90;;;;;;5035912;28;20717;-69
2022/11/21 00:13:01;;;;;;;6.77;6.37;;;7.10;99.90;;;;;;5031366;28;20193;-68
2022/11/21 00:15:27;;;;;;;7.67;7.20;;;7.10;99.90;;;;;;5042894;28;20666;-69
2022/11/21 00:17:52;;;;;;;9.70;6.80;;;7.10;99.90;;;;;;5051035;28;20210;-68
2022/11/21 00:20:20;;;;;;;7.50;6.77;;;7.00;99.90;;;;;;5039391;28;20190;-69
2022/11/21 00:22:45;;;;;;;7.23;6.50;;;7.00;99.90;;;;;;5031514;28;20175;-68
2022/11/21 00:25:12;;;;;;;10.77;6.40;;;7.00;99.90;;;;;;5040961;28;20190;-68
2022/11/21 00:27:38;;;;;;;7.43;6.90;;;7.00;99.90;;;;;;5051056;28;20276;-69
2022/11/21 00:30:06;;;;;;;14.07;7.40;;;6.90;99.90;;;;;;5042299;28;20179;-69
2022/11/21 00:32:31;;;;;;;10.37;6.90;;;6.90;99.90;;;;;;5034400;28;20167;-69
2022/11/21 00:34:57;;;;;;;10.17;6.93;;;6.90;99.90;;;;;;5050757;28;20619;-68
2022/11/21 00:37:23;;;;;;;13.13;6.40;;;6.90;99.90;;;;;;5049161;28;20270;-68
2022/11/21 00:39:48;;;;;;;6.30;5.90;;;6.80;99.90;;;;;;5030829;28;20229;-68
2022/11/21 00:42:14;;;;;;;6.40;6.00;;;6.80;99.90;;;;;;5029860;28;20598;-68
2022/11/21 00:44:39;;;;;;;8.13;5.40;;;6.80;99.90;;;;;;5050740;28;20187;-69
2022/11/21 00:47:05;;;;;;;12.20;7.03;;;6.80;99.90;;;;;;5050837;28;20265;-69
2022/11/21 00:49:30;;;;;;;18.67;7.10;;;6.80;99.90;;;;;;5034608;28;20187;-68
2022/11/21 00:51:56;;;;;;;6.73;6.17;;;6.80;99.90;;;;;;5034787;28;20168;-68
2022/11/21 00:54:22;;;;;;;7.07;6.33;;;6.80;99.90;;;;;;5050624;28;20264;-68
2022/11/21 00:56:47;;;;;;;12.43;6.83;;;6.80;99.90;;;;;;5054794;28;20194;-68
2022/11/21 00:59:13;;;;;;;9.00;6.23;;;6.90;99.90;;;;;;5040006;28;20187;-68
2022/11/21 01:01:38;;;;;;;7.57;6.83;;;6.80;99.90;;;;;;5033566;28;20265;-69
2022/11/21 01:04:04;;;;;;;12.67;6.93;;;6.80;99.90;;;;;;5045135;28;20175;-69
2022/11/21 01:06:30;;;;;;;11.33;7.10;;;6.80;99.90;;;;;;5054618;28;20525;-69
2022/11/21 01:08:55;;;;;;;16.00;7.70;;;6.80;99.90;;;;;;5043697;28;20576;-68
2022/11/21 01:11:21;;;;;;;7.03;6.50;;;6.70;99.90;;;;;;5034161;28;20168;-68
2022/11/21 01:13:48;;;;;;;8.33;5.53;;;6.70;99.90;;;;;;5042704;28;20183;-69
2022/11/21 01:16:18;;;;;;;7.23;6.73;;;6.60;99.90;;;;;;5053618;28;20254;-68
2022/11/21 01:18:44;;;;;;;5.27;4.93;;;6.70;99.90;;;;;;5046867;23;20219;-67
2022/11/21 01:21:15;;;;;;;9.43;6.73;;;6.70;99.90;;;;;;5035123;28;20176;-67
2022/11/21 01:23:42;;;;;;;8.73;6.10;;;6.70;99.90;;;;;;5034547;28;20225;-67
2022/11/21 01:26:12;;;;;;;8.00;7.20;;;6.70;99.90;;;;;;5034450;28;20172;-67
2022/11/21 01:28:38;;;;;;;12.40;6.50;;;6.70;99.90;;;;;;5034365;28;20203;-67
2022/11/21 01:31:04;;;;;;;6.17;5.57;;;6.80;99.90;;;;;;5034359;28;20665;-67
2022/11/21 01:33:30;;;;;;;16.23;7.43;;;6.80;99.90;;;;;;5035296;28;20176;-67
2022/11/21 01:35:55;;;;;;;7.13;5.30;;;6.80;99.90;;;;;;5034779;28;20172;-67
2022/11/21 01:38:21;;;;;;;12.10;6.17;;;6.80;99.90;;;;;;5034058;28;20549;-67
2022/11/21 01:40:46;;;;;;;7.43;6.80;;;6.80;99.90;;;;;;5034372;28;20252;-69
2022/11/21 01:43:15;;;;;;;11.73;6.73;;;6.90;99.90;;;;;;5034320;28;20194;-66
2022/11/21 01:46:08;;;;;;;6.73;6.00;;;6.80;99.90;;;;;;5034688;28;20262;-67
2022/11/21 01:48:48;;;;;;;6.20;5.87;;;6.80;99.90;;;;;;5034047;28;20195;-67
2022/11/21 01:51:32;;;;;;;6.23;5.70;;;6.70;99.90;;;;;;5033212;28;20202;-67
2022/11/21 01:54:03;;;;;;;9.37;6.40;;;6.70;99.90;;;;;;5029799;28;20168;-67
2022/11/21 01:56:36;;;;;;;8.07;7.13;;;6.70;99.90;;;;;;5014359;28;20168;-67
2022/11/21 01:59:04;;;;;;;7.13;6.43;;;6.70;99.90;;;;;;5018838;28;20250;-68
2022/11/21 02:01:31;;;;;;;9.03;7.63;;;6.70;99.90;;;;;;5033482;28;20243;-67
2022/11/21 02:03:58;;;;;;;6.40;5.70;;;6.70;99.90;;;;;;5034037;28;20172;-68
2022/11/21 02:06:24;;;;;;;6.00;5.70;;;6.70;99.90;;;;;;5032486;28;20249;-68
2022/11/21 02:08:50;;;;;;;10.10;6.70;;;6.70;99.90;;;;;;5013718;28;20200;-67
2022/11/21 02:11:26;;;;;;;6.67;6.23;;;6.70;99.90;;;;;;5013484;28;20176;-67
2022/11/21 02:13:51;;;;;;;10.90;6.43;;;6.60;99.90;;;;;;5013949;28;20171;-69
2022/11/21 02:16:17;;;;;;;11.57;5.83;;;6.60;99.90;;;;;;5013689;28;20616;-69
2022/11/21 02:18:43;;;;;;;8.07;7.00;;;6.60;99.90;;;;;;5013879;28;20204;-69
2022/11/21 02:21:30;;;;;;;16.80;6.60;;;6.70;99.90;;;;;;5013812;28;20198;-67
2022/11/21 02:24:18;;;;;;;13.17;6.03;;;6.60;99.90;;;;;;5013674;28;20532;-67
2022/11/21 02:26:47;;;;;;;6.83;6.43;;;6.70;99.90;;;;;;5014923;28;20180;-68
2022/11/21 02:29:13;;;;;;;9.33;6.17;;;6.60;99.90;;;;;;5033066;28;20233;-68
2022/11/21 02:31:38;;;;;;;6.00;5.50;;;6.60;99.90;;;;;;5033077;28;20179;-68
2022/11/21 02:34:04;;;;;;;6.60;6.10;;;6.60;99.90;;;;;;5032969;28;20175;-69
2022/11/21 02:36:38;;;;;;;7.10;6.60;;;6.60;99.90;;;;;;5033265;28;20179;-69
2022/11/21 02:39:12;;;;;;;6.77;6.17;;;6.50;99.90;;;;;;5032499;28;20174;-69
2022/11/21 02:41:44;;;;;;;6.53;5.70;;;6.40;99.90;;;;;;5033102;28;20164;-69
2022/11/21 02:44:21;;;;;;;6.40;5.90;;;6.40;99.90;;;;;;5013720;28;20180;-69
2022/11/21 02:46:49;;;;;;;5.83;5.53;;;6.30;99.90;;;;;;5013494;28;20638;-69
2022/11/21 02:49:20;;;;;;;7.00;6.00;;;6.30;99.90;;;;;;5012821;28;20203;-69
2022/11/21 02:51:47;;;;;;;11.77;5.73;;;6.30;99.90;;;;;;5013126;28;20614;-68
2022/11/21 02:54:12;;;;;;;5.67;5.33;;;6.40;99.90;;;;;;5012913;28;20258;-69
2022/11/21 02:56:38;;;;;;;6.73;6.03;;;6.40;99.90;;;;;;5012813;28;20248;-69
2022/11/21 02:59:03;;;;;;;6.93;6.40;;;6.40;99.90;;;;;;5011485;28;20188;-69
2022/11/21 03:01:29;;;;;;;19.43;5.97;;;6.40;99.90;;;;;;5012810;28;20176;-69
2022/11/21 03:03:55;;;;;;;9.37;5.80;;;6.40;99.90;;;;;;5012905;28;20433;-66
2022/11/21 03:06:20;;;;;;;7.60;6.70;;;6.50;99.90;;;;;;5011537;28;20637;-69
2022/11/21 03:08:46;;;;;;;5.43;5.00;;;6.50;99.90;;;;;;5015370;28;20200;-68
2022/11/21 03:11:11;;;;;;;6.17;5.77;;;6.50;99.90;;;;;;5019268;28;20180;-67
2022/11/21 03:13:37;;;;;;;5.47;5.17;;;6.50;99.90;;;;;;5033930;28;20200;-68
2022/11/21 03:16:03;;;;;;;6.47;5.63;;;6.50;99.90;;;;;;5034494;28;20183;-68
2022/11/21 03:18:28;;;;;;;6.20;5.47;;;6.50;99.90;;;;;;5031865;28;20207;-68
2022/11/21 03:20:54;;;;;;;7.17;5.50;;;6.50;99.90;;;;;;5032148;28;20254;-67
2022/11/21 03:23:19;;;;;;;6.07;5.67;;;6.50;99.90;;;;;;5031896;28;20180;-68
2022/11/21 03:25:45;;;;;;;5.73;5.23;;;6.50;99.90;;;;;;5032193;28;20226;-68
2022/11/21 03:28:10;;;;;;;6.10;5.60;;;6.50;99.90;;;;;;5030692;28;20294;-67
2022/11/21 03:30:36;;;;;;;9.10;6.13;;;6.50;99.90;;;;;;5032124;28;20172;-67
2022/11/21 03:33:01;;;;;;;6.27;5.87;;;6.60;99.90;;;;;;5028785;28;20236;-67
2022/11/21 03:35:27;;;;;;;6.97;6.27;;;6.60;99.90;;;;;;5012300;28;20172;-68
2022/11/21 03:37:53;;;;;;;7.63;7.13;;;6.50;99.90;;;;;;5012896;28;20689;-67
2022/11/21 03:40:18;;;;;;;6.00;5.50;;;6.50;99.90;;;;;;5031792;28;20171;-67
2022/11/21 03:42:44;;;;;;;5.93;5.40;;;6.60;99.90;;;;;;5032005;28;20179;-68
2022/11/21 03:45:10;;;;;;;6.10;5.80;;;6.60;99.90;;;;;;5031969;28;20602;-67
2022/11/21 03:47:35;;;;;;;5.57;5.30;;;6.60;99.90;;;;;;5031983;28;20196;-68
2022/11/21 03:50:01;;;;;;;10.53;7.00;;;6.60;99.90;;;;;;5032063;28;20576;-67
2022/11/21 03:52:26;;;;;;;9.23;6.40;;;6.60;99.90;;;;;;5031896;28;20167;-67
2022/11/21 03:54:52;;;;;;;8.53;5.90;;;6.60;99.90;;;;;;5031805;28;20168;-67
2022/11/21 03:57:18;;;;;;;5.50;5.20;;;6.60;99.90;;;;;;5031628;28;20199;-68
2022/11/21 03:59:43;;;;;;;6.13;5.73;;;6.60;99.90;;;;;;5031941;28;20191;-67
2022/11/21 04:02:09;;;;;;;5.87;5.57;;;6.60;99.90;;;;;;5013226;28;20172;-67
2022/11/21 04:04:34;;;;;;;8.27;6.30;;;6.60;99.90;;;;;;5011833;28;20180;-67
2022/11/21 04:07:00;;;;;;;6.50;6.10;;;6.60;99.90;;;;;;5011800;28;20274;-67
2022/11/21 04:09:25;;;;;;;6.80;6.40;;;6.60;99.90;;;;;;5020617;28;20190;-67
2022/11/21 04:11:51;;;;;;;7.50;5.37;;;6.60;99.90;;;;;;5031994;28;20254;-67
2022/11/21 04:14:16;;;;;;;11.87;5.47;;;6.60;99.90;;;;;;5031424;28;20175;-67
2022/11/21 04:16:42;;;;;;;8.70;6.47;;;6.60;99.90;;;;;;5031596;28;20648;-67
2022/11/21 04:19:08;;;;;;;6.50;6.00;;;6.50;99.90;;;;;;5025837;28;20545;-67
2022/11/21 04:21:33;;;;;;;6.17;5.77;;;6.50;99.90;;;;;;5011901;28;20652;-67
2022/11/21 04:23:59;;;;;;;5.87;5.47;;;6.50;99.90;;;;;;5014687;28;20444;-67
2022/11/21 04:26:24;;;;;;;8.20;6.47;;;6.50;99.90;;;;;;5015603;28;20164;-68
2022/11/21 04:28:50;;;;;;;7.80;6.30;;;6.50;99.90;;;;;;5017250;28;20208;-67
2022/11/21 04:31:15;;;;;;;13.70;7.20;;;6.50;99.90;;;;;;5035247;28;20641;-67
2022/11/21 04:33:41;;;;;;;7.43;6.87;;;6.50;99.90;;;;;;5035185;28;20267;-67
2022/11/21 04:36:08;;;;;;;6.90;6.50;;;6.50;99.90;;;;;;5015709;28;20183;-67
2022/11/21 04:38:33;;;;;;;6.40;6.00;;;6.50;99.90;;;;;;5015343;28;20276;-67
2022/11/21 04:40:59;;;;;;;8.13;7.33;;;6.50;99.90;;;;;;5033026;28;20266;-67
2022/11/21 04:43:25;;;;;;;6.63;6.23;;;6.50;99.90;;;;;;5035134;28;20229;-68
2022/11/21 04:45:50;;;;;;;8.43;5.97;;;6.50;99.90;;;;;;5019354;28;20180;-67
2022/11/21 04:48:16;;;;;;;7.40;6.80;;;6.50;99.90;;;;;;5014995;28;20239;-67
2022/11/21 04:50:41;;;;;;;8.10;7.27;;;6.50;99.90;;;;;;5028775;28;20176;-67
2022/11/21 04:53:07;;;;;;;8.97;6.60;;;6.50;99.90;;;;;;5034899;28;20175;-67
2022/11/21 04:55:32;;;;;;;6.93;6.53;;;6.60;99.90;;;;;;5022510;28;20199;-67
2022/11/21 04:57:59;;;;;;;7.73;7.13;;;6.60;99.90;;;;;;5015089;28;20200;-67
2022/11/21 05:00:24;;;;;;;9.00;6.97;;;6.60;99.90;;;;;;5014894;28;20195;-67
2022/11/21 05:02:51;;;;;;;8.63;7.83;;;6.60;99.90;;;;;;5014946;28;20680;-68
2022/11/21 05:05:17;;;;;;;12.90;7.03;;;6.60;99.90;;;;;;5023113;28;20176;-67
2022/11/21 05:07:42;;;;;;;7.13;6.63;;;6.70;99.90;;;;;;5034626;28;20217;-67
2022/11/21 05:10:08;;;;;;;7.57;7.00;;;6.70;99.90;;;;;;5033874;28;20167;-68
2022/11/21 05:15:18;;;;;;;8.27;7.57;;;6.70;99.90;;;;;;5026942;28;20211;-67
2022/11/21 05:17:44;;;;;;;7.83;7.03;;;6.70;99.90;;;;;;5014559;28;20238;-68
2022/11/21 05:20:10;;;;;;;9.63;8.80;;;6.70;99.90;;;;;;5014652;28;20264;-68
2022/11/21 05:22:35;;;;;;;8.97;7.30;;;6.70;99.90;;;;;;5014709;28;20234;-68
2022/11/21 05:25:01;;;;;;;8.20;7.60;;;6.70;99.90;;;;;;5018443;28;20554;-67
2022/11/21 05:27:29;;;;;;;8.10;7.40;;;6.70;99.90;;;;;;5034100;28;20191;-68
2022/11/21 05:29:55;;;;;;;7.53;6.87;;;6.60;99.90;;;;;;5031423;28;20199;-67
2022/11/21 05:32:20;;;;;;;11.20;7.40;;;6.60;99.90;;;;;;5014320;28;20646;-67
2022/11/21 05:34:46;;;;;;;9.50;8.07;;;6.50;99.90;;;;;;5014196;28;20176;-67
2022/11/21 05:37:11;;;;;;;10.10;7.83;;;6.50;99.90;;;;;;5033992;28;20196;-68
2022/11/21 05:39:37;;;;;;;9.70;8.90;;;6.50;99.90;;;;;;5033696;28;20178;-67
2022/11/21 05:42:03;;;;;;;8.07;7.43;;;6.50;99.90;;;;;;5015318;28;20604;-68
2022/11/21 05:44:28;;;;;;;7.97;7.37;;;6.40;99.90;;;;;;5014445;28;20275;-67
2022/11/21 05:46:54;;;;;;;7.27;6.77;;;6.40;99.90;;;;;;5031227;28;20203;-68
2022/11/21 05:49:20;;;;;;;8.23;7.53;;;6.50;99.90;;;;;;5033480;28;20652;-67
2022/11/21 05:51:45;;;;;;;10.97;7.67;;;6.50;99.90;;;;;;5018433;28;20252;-67
2022/11/21 05:54:13;;;;;;;9.27;8.40;;;6.50;99.90;;;;;;5013884;28;20251;-67
2022/11/21 05:56:39;;;;;;;8.57;7.97;;;6.50;99.90;;;;;;5027245;28;20572;-67
2022/11/21 05:59:04;;;;;;;10.03;8.43;;;6.50;99.90;;;;;;5033492;28;20185;-68
2022/11/21 06:04:14;;;;;;;9.83;8.93;;;6.60;99.90;;;;;;5013708;28;20258;-67
2022/11/21 06:06:40;;;;;;;13.80;8.83;;;6.60;99.90;;;;;;5026616;28;20187;-67
2022/11/21 06:09:06;;;;;;;9.70;7.67;;;6.60;99.90;;;;;;5033176;28;20290;-68
2022/11/21 06:11:31;;;;;;;20.07;9.73;;;6.60;99.90;;;;;;5022133;28;20268;-67
2022/11/21 06:13:57;;;;;;;9.27;8.57;;;6.60;99.90;;;;;;5013608;28;20172;-67
2022/11/21 06:16:23;;;;;;;10.90;9.97;;;6.60;99.90;;;;;;5026550;28;20184;-67
2022/11/21 06:18:53;;;;;;;10.60;8.67;;;6.60;99.90;;;;;;5037071;28;20211;-66
2022/11/21 06:21:24;;;;;;;10.43;8.50;;;6.60;99.90;;;;;;5027121;28;20180;-66
2022/11/21 06:23:51;;;;;;;12.17;8.43;;;6.60;99.90;;;;;;5013540;28;20547;-66
2022/11/21 06:26:19;;;;;;;9.83;7.70;;;6.60;99.90;;;;;;5020312;28;20183;-67
2022/11/21 06:28:45;;;;;;;9.67;8.80;;;6.60;99.90;;;;;;5031772;28;20601;-66
2022/11/21 06:31:13;;;;;;;9.90;8.43;;;6.60;99.90;;;;;;5012963;28;20168;-67
2022/11/21 06:33:40;;;;;;;8.80;8.20;;;6.60;99.90;;;;;;5045059;28;20172;-68
2022/11/21 06:36:12;;;;;;;10.10;8.43;;;6.60;99.90;;;;;;5032107;28;20179;-67
2022/11/21 06:38:38;;;;;;;17.00;8.40;;;6.60;99.90;;;;;;5032931;28;20657;-67
2022/11/21 06:41:10;;;;;;;9.80;8.43;;;6.50;99.90;;;;;;5012157;28;20203;-67
2022/11/21 06:43:36;;;;;;;9.10;8.50;;;6.60;99.90;;;;;;5012947;28;20179;-67
2022/11/21 06:46:03;;;;;;;12.97;9.10;;;6.50;99.90;;;;;;5029881;28;20187;-67
2022/11/21 06:48:31;;;;;;;8.63;7.93;;;6.50;99.90;;;;;;5032344;28;20673;-68
2022/11/21 06:51:02;;;;;;;8.67;7.87;;;6.50;99.90;;;;;;5015419;28;20184;-68
2022/11/21 06:53:28;;;;;;;13.87;8.03;;;6.60;99.90;;;;;;5012972;28;20169;-68
2022/11/21 06:55:58;;;;;;;11.00;9.00;;;6.60;99.90;;;;;;5028267;28;20640;-67
2022/11/21 06:58:24;;;;;;;8.27;7.60;;;6.60;99.90;;;;;;5032618;28;20207;-67
2022/11/21 07:00:50;;;;;;;8.30;7.67;;;6.60;99.90;;;;;;5017574;28;20192;-67
2022/11/21 07:03:15;;;;;;;9.33;8.07;;;6.70;99.90;;;;;;5012570;28;20255;-68
2022/11/21 07:05:41;;;;;;;8.10;7.57;;;6.70;99.90;;;;;;5021418;28;20192;-68
2022/11/21 07:08:06;;;;;;;9.67;8.87;;;6.70;99.90;;;;;;5026554;28;20200;-67
2022/11/21 07:10:32;;;;;;;12.17;7.87;;;6.70;99.90;;;;;;5012358;28;20539;-68
2022/11/21 07:15:44;;;;;;;8.73;7.83;;;6.80;99.90;;;;;;5030116;28;20564;-67
2022/11/21 07:18:10;;;;;;;10.87;8.70;;;6.70;99.90;;;;;;5028166;23;20651;-66
2022/11/21 07:20:35;;;;;;;8.67;8.00;;;6.70;99.90;;;;;;4992893;28;20173;-66
2022/11/21 07:23:01;;;;;;;10.10;7.73;;;6.80;99.90;;;;;;4992591;28;20164;-66
2022/11/21 07:25:27;;;;;;;7.90;7.33;;;6.70;99.90;;;;;;4992880;28;20333;-68
2022/11/21 07:27:52;;;;;;;9.07;8.27;;;6.70;99.90;;;;;;4999578;28;20600;-66
2022/11/21 07:30:18;;;;;;;9.40;8.60;;;6.80;99.90;;;;;;5010343;28;20183;-66
2022/11/21 07:32:44;;;;;;;9.87;8.20;;;6.80;99.90;;;;;;5012278;28;20525;-65
2022/11/21 07:35:09;;;;;;;9.10;8.30;;;6.80;99.90;;;;;;5010513;28;20172;-66
2022/11/21 07:37:39;;;;;;;11.10;9.23;;;6.80;99.90;;;;;;5012046;28;20722;-67
2022/11/21 07:40:05;;;;;;;9.37;8.50;;;6.80;99.90;;;;;;5011319;28;20199;-66
2022/11/21 07:42:32;;;;;;;8.10;7.50;;;6.90;99.90;;;;;;5010912;28;20176;-66
2022/11/21 07:44:58;;;;;;;8.87;8.17;;;6.90;99.90;;;;;;5011821;28;20207;-66
2022/11/21 07:47:23;;;;;;;9.33;8.60;;;6.90;99.90;;;;;;5010925;28;20192;-66
2022/11/21 07:49:49;;;;;;;10.23;9.33;;;6.90;99.90;;;;;;5011324;28;20222;-67
2022/11/21 07:52:14;;;;;;;11.57;9.33;;;6.90;99.90;;;;;;5011952;28;20176;-66
2022/11/21 07:54:40;;;;;;;11.27;9.03;;;6.90;99.90;;;;;;5010373;28;20195;-67
2022/11/21 07:57:06;;;;;;;9.30;8.53;;;6.90;99.90;;;;;;5010108;28;20176;-66
2022/11/21 07:59:31;;;;;;;9.20;8.33;;;7.00;99.90;;;;;;5009941;28;20179;-68
2022/11/21 08:01:57;;;;;;;16.70;10.60;;;7.00;99.90;;;;;;5011764;28;20708;-67
2022/11/21 08:04:22;;;;;;;10.70;9.60;;;7.10;99.90;;;;;;5011530;28;20180;-67
2022/11/21 08:06:48;;;;;;;9.20;8.40;;;7.10;99.90;;;;;;5011695;28;20164;-67
2022/11/21 08:09:13;;;;;;;11.13;10.33;;;7.10;99.90;;;;;;5009615;28;20212;-66
2022/11/21 08:11:39;;;;;;;15.33;10.97;;;7.20;99.90;;;;;;5010471;28;20650;-66
2022/11/21 08:14:05;;;;;;;11.73;9.53;;;7.20;99.90;;;;;;5010067;28;20592;-67
2022/11/21 08:16:31;;;;;;;11.23;10.23;;;7.20;99.90;;;;;;5010559;28;20176;-67
2022/11/21 08:18:58;;;;;;;11.30;9.40;;;7.10;99.90;;;;;;5011493;28;21521;-66
2022/11/21 08:21:25;;;;;;;13.37;10.17;;;7.10;99.90;;;;;;5010330;28;20183;-68
2022/11/21 08:23:50;;;;;;;10.37;8.50;;;7.10;99.90;;;;;;5010244;28;20187;-67
2022/11/21 08:26:16;;;;;;;18.03;9.37;;;7.10;99.90;;;;;;5011507;28;20658;-68
2022/11/21 08:28:42;;;;;;;11.17;9.83;;;7.10;99.90;;;;;;5010254;28;20684;-68
2022/11/21 08:31:08;;;;;;;10.50;9.50;;;7.00;99.90;;;;;;5011094;28;20182;-67
2022/11/21 08:33:33;;;;;;;10.00;8.83;;;7.00;99.90;;;;;;5011483;28;20202;-66
2022/11/21 08:36:06;;;;;;;10.70;9.73;;;7.00;99.90;;;;;;5010342;28;20179;-67
2022/11/21 08:38:32;;;;;;;13.30;11.23;;;7.00;99.90;;;;;;5011331;28;20294;-66
2022/11/21 08:43:41;;;;;;;14.63;9.80;;;7.10;99.90;;;;;;5011396;28;20183;-66
2022/11/21 08:46:07;;;;;;;10.93;9.90;;;7.10;99.90;;;;;;5010040;28;20637;-67
2022/11/21 08:48:33;;;;;;;14.53;10.30;;;7.10;99.90;;;;;;5008925;28;20211;-68
2022/11/21 08:50:59;;;;;;;10.00;9.17;;;7.20;99.90;;;;;;5011486;28;20179;-67
2022/11/21 08:53:24;;;;;;;14.87;11.87;;;7.20;99.90;;;;;;5011582;28;20194;-68
2022/11/21 08:55:50;;;;;;;11.27;10.20;;;7.20;99.90;;;;;;5010259;28;20168;-67
2022/11/21 08:58:16;;;;;;;23.73;14.13;;;7.30;99.90;;;;;;5010030;28;20200;-66
2022/11/21 09:00:41;;;;;;;17.23;12.17;;;7.30;99.90;;;;;;5011405;28;20183;-67
2022/11/21 09:03:07;;;;;;;26.20;13.77;;;7.40;99.90;;;;;;5010010;28;20708;-68
2022/11/21 09:05:33;;;;;;;14.50;11.37;;;7.50;99.90;;;;;;5010193;28;20172;-67
2022/11/21 09:07:59;;;;;;;13.83;10.70;;;7.60;99.90;;;;;;5009970;28;20207;-67
2022/11/21 09:10:25;;;;;;;15.10;10.00;;;7.50;99.90;;;;;;5012291;28;20179;-66
2022/11/21 09:12:51;;;;;;;16.90;12.37;;;7.60;99.90;;;;;;5014840;28;20183;-67
2022/11/21 09:18:01;;;;;;;12.33;10.57;;;7.70;99.90;;;;;;5014783;28;20222;-66
2022/11/21 09:20:27;;;;;;;14.13;11.60;;;7.80;99.90;;;;;;5013719;28;20571;-67
2022/11/21 09:22:53;;;;;;;18.93;12.40;;;7.90;99.90;;;;;;5014635;28;20172;-67
2022/11/21 09:25:18;;;;;;;15.43;12.53;;;8.00;99.90;;;;;;5013441;28;20179;-67
2022/11/21 09:27:44;;;;;;;29.17;16.53;;;8.20;99.90;;;;;;5013282;28;20245;-67
2022/11/21 09:30:10;;;;;;;17.00;11.70;;;8.40;99.90;;;;;;5013202;28;20176;-67
2022/11/21 09:32:36;;;;;;;11.70;9.37;;;8.50;99.90;;;;;;5014370;28;20211;-68
2022/11/21 09:35:02;;;;;;;12.50;10.23;;;8.60;99.90;;;;;;5014366;28;20624;-66
2022/11/21 09:37:27;;;;;;;13.13;11.13;;;8.70;99.90;;;;;;5013696;28;20196;-66
2022/11/21 09:39:53;;;;;;;10.20;9.13;;;8.70;99.90;;;;;;5014238;28;20226;-66
2022/11/21 09:42:38;;;;;;;9.53;8.73;;;8.70;99.90;;;;;;5014145;28;20216;-66
2022/11/21 09:45:15;;;;;;;12.90;10.33;;;8.60;99.90;;;;;;5013962;28;20583;-66
2022/11/21 09:47:49;;;;;;;13.60;10.23;;;8.80;99.90;;;;;;5013877;28;20210;-67
2022/11/21 09:50:15;;;;;;;9.43;8.47;;;8.90;99.90;;;;;;5014123;28;20210;-67
2022/11/21 09:52:49;;;;;;;11.60;8.23;;;9.00;99.90;;;;;;5012954;28;20207;-66
2022/11/21 09:55:23;;;;;;;12.50;9.03;;;9.40;99.90;;;;;;5014003;28;20267;-69
2022/11/21 09:57:49;;;;;;;10.67;7.73;;;10.00;99.90;;;;;;5012499;28;20195;-67
2022/11/21 10:00:21;;;;;;;7.33;6.73;;;10.50;99.90;;;;;;5012507;28;20199;-67
2022/11/21 10:02:48;;;;;;;9.33;7.13;;;10.90;99.90;;;;;;5013724;28;20207;-67
2022/11/21 10:05:14;;;;;;;7.70;7.03;;;11.30;99.90;;;;;;5012243;28;20707;-68
2022/11/21 10:07:41;;;;;;;6.70;6.30;;;11.80;86.80;;;;;;5013112;28;20200;-68
2022/11/21 10:10:41;;;;;;;9.50;6.60;;;11.80;24.50;;;;;;5011939;28;20267;-68
2022/11/21 10:13:28;;;;;;;6.20;5.53;;;11.50;15.30;;;;;;5013057;28;20645;-67
2022/11/21 10:16:30;;;;;;;5.40;4.90;;;11.80;44.80;;;;;;5013266;28;20184;-67
2022/11/21 10:19:04;;;;;;;6.27;5.23;;;11.80;39.00;;;;;;4962736;28;20226;-67
2022/11/21 10:21:52;;;;;;;9.80;5.10;;;11.80;13.80;;;;;;5012851;28;20254;-67
2022/11/21 10:25:12;;;;;;;9.53;4.70;;;12.10;1.00;;;;;;5011142;28;20183;-68
2022/11/21 10:27:52;;;;;;;6.47;4.93;;;12.20;1.00;;;;;;4935976;29;20202;-68
2022/11/21 10:30:20;;;;;;;4.47;4.20;;;12.60;10.10;;;;;;5012686;28;20508;-68
2022/11/21 10:33:08;;;;;;;5.03;4.63;;;12.90;1.00;;;;;;5012894;28;20176;-68
2022/11/21 10:35:42;;;;;;;5.13;4.63;;;13.00;1.00;;;;;;5012653;28;20195;-67
2022/11/21 10:38:20;;;;;;;5.47;4.60;;;13.40;99.90;;;;;;5012560;28;20269;-68
2022/11/21 10:40:51;;;;;;;4.67;4.40;;;13.70;1.00;;;;;;5012761;28;20176;-68
2022/11/21 10:46:16;;;;;;;4.67;4.23;;;14.10;99.90;;;;;;5012038;28;20194;-68
2022/11/21 10:48:41;;;;;;;5.00;4.20;;;14.00;99.90;;;;;;5012512;28;20700;-68
2022/11/21 10:51:23;;;;;;;4.23;3.83;;;14.20;99.90;;;;;;5012754;28;20184;-67
2022/11/21 10:56:52;;;;;;;4.60;4.20;;;14.50;99.90;;;;;;5012749;28;20299;-68
2022/11/21 10:59:28;;;;;;;4.37;4.10;;;14.50;99.90;;;;;;5012245;28;20742;-67
2022/11/21 11:02:14;;;;;;;5.03;4.23;;;14.00;99.90;;;;;;5011220;28;20266;-67
2022/11/21 11:04:41;;;;;;;7.40;4.53;;;13.80;99.90;;;;;;5001739;28;20591;-68
2022/11/21 11:07:23;;;;;;;4.30;3.93;;;13.80;99.90;;;;;;5011065;28;20259;-67
2022/11/21 11:09:51;;;;;;;4.00;3.80;;;13.90;99.90;;;;;;5011570;28;20176;-67
2022/11/21 11:13:32;;;;;;;3.87;3.67;;;13.80;99.90;;;;;;5011035;28;20806;-68
2022/11/21 11:15:20;;;;;;;4.00;3.80;;;13.90;99.90;;;;;;5012028;28;20267;-68
2022/11/21 11:17:58;;;;;;;5.60;3.40;;;14.60;99.90;;;;;;5012147;28;20226;-68
2022/11/21 11:20:32;;;;;;;3.47;3.30;;;15.00;99.90;;;;;;4992246;28;20180;-67
2022/11/21 11:22:58;;;;;;;3.80;3.50;;;15.30;99.90;;;;;;4993486;28;20208;-68
2022/11/21 11:25:23;;;;;;;4.17;3.60;;;15.20;99.90;;;;;;5011813;28;20558;-68
2022/11/21 11:27:49;;;;;;;4.37;4.07;;;14.90;99.90;;;;;;5030490;28;20195;-68
2022/11/21 11:30:16;;;;;;;5.00;3.97;;;15.00;99.90;;;;;;5012002;28;20214;-68
2022/11/21 11:32:42;;;;;;;3.63;3.43;;;15.30;99.90;;;;;;5011623;28;20246;-68
2022/11/21 11:35:22;;;;;;;3.73;3.53;;;15.60;99.90;;;;;;5010454;28;20224;-68
2022/11/21 11:38:10;;;;;;;3.83;3.60;;;15.60;99.90;;;;;;5012041;28;20200;-67
2022/11/21 11:40:40;;;;;;;4.10;3.70;;;15.40;99.90;;;;;;4992191;28;20185;-67
2022/11/21 11:49:17;;;;;;;4.17;3.50;;;15.20;99.90;;;;;;5011142;28;20576;-67
2022/11/21 11:51:57;;;;;;;3.70;3.50;;;15.00;99.90;;;;;;5011965;28;20172;-67
2022/11/21 11:54:38;;;;;;;6.47;3.80;;;14.70;99.90;;;;;;5010183;28;20204;-67
2022/11/21 11:57:05;;;;;;;3.97;3.77;;;14.60;99.90;;;;;;5009689;28;20183;-68
2022/11/21 11:59:38;;;;;;;3.90;3.70;;;14.40;99.90;;;;;;5010182;28;20638;-68
2022/11/21 12:02:27;;;;;;;4.40;4.10;;;14.20;99.90;;;;;;5010444;28;20183;-67
2022/11/21 12:05:06;;;;;;;4.13;3.93;;;13.90;99.90;;;;;;5011494;28;20590;-67
2022/11/21 12:07:41;;;;;;;4.50;4.10;;;14.00;99.90;;;;;;5011507;28;20198;-68
2022/11/21 12:10:16;;;;;;;4.03;3.83;;;14.00;99.90;;;;;;5010919;28;20649;-68
2022/11/21 12:12:48;;;;;;;4.30;4.10;;;13.90;99.90;;;;;;5010344;28;20172;-68
2022/11/21 12:18:48;;;;;;;4.70;4.30;;;13.70;99.90;;;;;;4950763;28;20605;-67
2022/11/21 12:21:17;;;;;;;4.47;4.27;;;13.20;99.90;;;;;;4991156;28;20197;-68
2022/11/21 12:23:43;;;;;;;3.53;3.43;;;13.10;99.90;;;;;;4991331;28;20177;-67
2022/11/21 12:26:20;;;;;;;4.93;4.27;;;13.30;99.90;;;;;;5010380;28;20172;-67
2022/11/21 12:29:04;;;;;;;3.73;3.53;;;13.40;99.90;;;;;;5009164;28;20290;-66
2022/11/21 12:31:47;;;;;;;4.20;4.00;;;13.10;99.90;;;;;;5008964;28;20164;-67
2022/11/21 12:34:30;;;;;;;3.70;3.50;;;12.50;99.90;;;;;;5011316;28;20165;-66
2022/11/21 12:37:15;;;;;;;4.50;4.10;;;11.80;99.90;;;;;;5010034;28;20183;-66
2022/11/21 12:40:09;;;;;;;4.20;4.00;;;11.40;99.90;;;;;;5009525;28;20180;-66
2022/11/21 12:42:49;;;;;;;6.73;4.10;;;11.20;99.90;;;;;;5011956;28;20650;-66
2022/11/21 12:45:31;;;;;;;4.50;4.20;;;11.10;99.90;;;;;;5012901;28;20257;-66
2022/11/21 12:54:29;;;;;;;5.87;4.37;;;11.10;99.90;;;;;;5014643;28;20551;-66
2022/11/21 12:57:14;;;;;;;4.00;3.70;;;11.40;99.90;;;;;;5014996;28;20176;-66
2022/11/21 12:59:47;;;;;;;4.30;4.00;;;11.40;99.90;;;;;;5011973;28;20191;-67
2022/11/21 13:02:37;;;;;;;4.90;4.50;;;11.40;99.90;;;;;;5033592;28;20175;-66
2022/11/21 13:05:04;;;;;;;4.43;4.10;;;11.30;99.90;;;;;;5027604;28;20180;-66
2022/11/21 13:07:31;;;;;;;4.50;4.10;;;11.10;99.90;;;;;;5014664;28;20192;-66
2022/11/21 13:10:00;;;;;;;4.30;4.00;;;10.90;99.90;;;;;;5014069;28;20176;-67
2022/11/21 13:12:51;;;;;;;5.03;4.50;;;10.70;99.90;;;;;;5014461;28;20176;-67
2022/11/21 13:15:27;;;;;;;4.40;4.20;;;10.50;99.90;;;;;;5012988;28;20676;-67
2022/11/21 13:18:01;;;;;;;4.70;4.50;;;10.40;99.90;;;;;;5014986;28;20639;-68
2022/11/21 13:20:31;;;;;;;4.20;4.00;;;10.30;99.90;;;;;;5012693;28;20645;-67
2022/11/21 13:23:05;;;;;;;4.60;4.20;;;10.30;99.90;;;;;;5014436;28;20226;-67
2022/11/21 13:25:30;;;;;;;5.27;4.77;;;10.20;99.90;;;;;;5014294;28;20226;-67
2022/11/21 13:28:19;;;;;;;4.17;3.97;;;10.20;99.90;;;;;;5013634;28;20204;-67
2022/11/21 13:30:51;;;;;;;4.40;4.20;;;10.10;99.90;;;;;;5001835;28;20223;-67
2022/11/21 13:33:38;;;;;;;4.80;4.50;;;10.00;99.90;;;;;;5027560;28;20176;-67
2022/11/21 13:36:09;;;;;;;4.43;4.00;;;9.90;99.90;;;;;;5020797;28;20266;-68